• Join FlightAware (Why Join?)
  • Login
  • US Flag 
12:00PM EST


 

Airport Tracker/Info


-or-


 

Live Flight TrackerFlight Track Log ✈ N560G ✈ 29-Mar-2014 ✈ KCRQ - KPSC

Flight Track Log - Related Links

Times and Time Zones

All times are in EDT time to prevent confusion due to time zone crossing. See the N560G flight status page for this flight to view local times or setup timezone preferences in your user account.

Time Position Orientation Groundspeed Altitude Reporting Facility
EDT Latitude Longitude Course Direction KTS MPH feet Rate Location/Type
05:40PM 33.1167 -117.3167 270° West 185 213 1,400  Level Southern California TRACON
05:41PM 33.1167 -117.3833 270° West 227 261 3,300 2,280 Climbing Southern California TRACON
05:41PM 33.1031 -117.4128 241° Southwest 221 254 4,900 3,180 Climbing Los Angeles Center
05:42PM 33.0883 -117.5061 259° West 234 269 8,600 3,240 Climbing Los Angeles Center
05:43PM 33.0783 -117.5850 261° West 238 274 11,600 2,880 Climbing Los Angeles Center
05:44PM 33.0872 -117.6678 277° West 252 290 14,600 2,400 Climbing Los Angeles Center
05:45PM 33.1475 -117.7331 318° Northwest 293 337 16,600 2,040 Climbing Los Angeles Center
05:46PM 33.2131 -117.7919 323° Northwest 296 341 18,900 2,580 Climbing Los Angeles Center
05:48PM 33.2789 -117.8514 323° Northwest 296 341 22,000 3,420 Climbing Los Angeles Center
05:49PM 33.3497 -117.9069 327° Northwest 256 295 26,000 2,700 Climbing Los Angeles Center
05:50PM 33.4064 -117.9328 339° North 223 257 27,600 780 Climbing Los Angeles Center
05:51PM 33.4794 -117.9708 337° Northwest 281 323 27,700 720 Climbing Los Angeles Center
05:52PM 33.5700 -117.9983 346° North 338 389 29,100 1,320 Climbing Los Angeles Center
05:53PM 33.6669 -118.0089 355° North 348 400 30,500 1,440 Climbing Los Angeles Center
05:54PM 33.7819 -118.0233 354° North 349 402 32,100 1,320 Climbing Los Angeles Center
05:55PM 33.8656 -118.0711 335° Northwest 336 387 33,300 1,260 Climbing Los Angeles Center
05:56PM 33.9478 -118.1200 334° Northwest 335 386 34,800 1,440 Climbing Los Angeles Center
05:57PM 34.0253 -118.1681 333° Northwest 319 367 36,300 1,260 Climbing Los Angeles Center
05:58PM 34.1158 -118.1786 354° North 332 382 37,500 1,200 Climbing Los Angeles Center
05:59PM 34.2225 -118.1889 355° North 323 372 38,800 1,020 Climbing Los Angeles Center
06:00PM 34.3119 -118.1928 358° North 323 372 39,700 540 Climbing Los Angeles Center
06:01PM 34.4000 -118.2003 356° North 319 367 40,000 120 Climbing Los Angeles Center
06:02PM 34.4936 -118.2061 357° North 332 382 40,000  Level Los Angeles Center
06:03PM 34.5919 -118.2125 357° North 351 404 40,000  Level Los Angeles Center
06:04PM 34.7047 -118.2192 357° North 365 420 40,000  Level Los Angeles Center
06:05PM 34.8075 -118.2267 357° North 366 421 40,000  Level Los Angeles Center
06:06PM 34.9122 -118.2336 357° North 372 428 40,000  Level Los Angeles Center
06:07PM 35.0186 -118.2403 357° North 374 430 40,000  Level Los Angeles Center
06:08PM 35.1250 -118.2483 356° North 377 434 40,000  Level Los Angeles Center
06:09PM 35.2328 -118.2550 357° North 383 441 40,000  Level Los Angeles Center
06:10PM 35.3408 -118.2636 356° North 385 443 40,000  Level Los Angeles Center
06:11PM 35.4719 -118.2717 357° North 390 449 40,000  Level Los Angeles Center
06:12PM 35.5828 -118.2781 357° North 398 458 40,000  Level Los Angeles Center
06:13PM 35.6908 -118.2861 357° North 392 451 40,000 300 Level Los Angeles Center
06:14PM 35.7981 -118.2933 357° North 389 448 40,700 720 Climbing Los Angeles Center
06:15PM 35.8992 -118.3000 357° North 371 427 41,600 780 Climbing Los Angeles Center
06:16PM 35.9981 -118.3078 356° North 359 413 42,300 660 Climbing Los Angeles Center
06:17PM 36.0933 -118.3136 357° North 346 398 43,000 300 Climbing Los Angeles Center
06:18PM 36.2072 -118.3219 357° North 342 394 43,000  Level Los Angeles Center
06:19PM 36.3056 -118.3286 357° North 350 403 43,000  Level Los Angeles Center
06:21PM 36.4075 -118.3358 357° North 363 418 43,000  Level Los Angeles Center
06:22PM 36.5086 -118.3428 357° North 363 418 43,000  Level Los Angeles Center
06:23PM 36.6128 -118.3497 357° North 370 426 43,000  Level Los Angeles Center
06:24PM 36.7169 -118.3556 357° North 372 428 43,000  Level Los Angeles Center
06:25PM 36.8422 -118.3653 356° North 378 435 43,000  Level Los Angeles Center
06:26PM 36.9503 -118.3719 357° North 386 444 43,000  Level Los Angeles Center
06:27PM 37.0614 -118.3808 356° North 395 455 43,000  Level Los Angeles Center
06:28PM 37.1722 -118.3869 357° North 400 460 43,000  Level Oakland Center
06:29PM 37.2842 -118.3950 357° North 403 464 43,000  Level Oakland Center
06:30PM 37.3953 -118.4028 357° North 401 461 43,000  Level Oakland Center
06:31PM 37.5031 -118.4103 357° North 388 447 43,000  Level Oakland Center
06:32PM 37.6328 -118.4197 357° North 388 447 43,000  Level Oakland Center
06:33PM 37.7433 -118.4272 357° North 395 455 43,000 -60 Level Oakland Center
06:34PM 37.8506 -118.4339 357° North 389 448 42,900  Descending Oakland Center
06:35PM 37.9531 -118.4414 357° North 372 428 43,000  Climbing Oakland Center
06:36PM 38.0564 -118.4481 357° North 371 427 43,000  Level Oakland Center
06:37PM 38.1692 -118.4564 357° North 375 432 43,000  Level Oakland Center
06:38PM 38.2775 -118.4647 357° North 384 442 43,000  Level Oakland Center
06:39PM 38.3839 -118.4731 356° North 386 444 43,000  Level Oakland Center
06:40PM 38.4908 -118.4800 357° North 385 443 43,000  Level Oakland Center
06:41PM 38.5983 -118.4886 356° North 385 443 43,000  Level Oakland Center
06:42PM 38.7061 -118.4956 357° North 386 444 43,000  Level Oakland Center
06:43PM 38.8133 -118.5036 357° North 386 444 43,000  Level Oakland Center
06:44PM 38.9203 -118.5119 357° North 386 444 43,000  Level Oakland Center
06:45PM 39.0275 -118.5200 357° North 390 449 43,000  Level Oakland Center
06:46PM 39.1422 -118.5292 356° North 403 464 43,000  Level Oakland Center
06:47PM 39.2550 -118.5364 357° North 407 468 43,000  Level Oakland Center
06:48PM 39.3875 -118.5472 356° North 401 461 43,000  Level Oakland Center
06:49PM 39.4914 -118.5553 357° North 399 459 43,000  Level Oakland Center
06:50PM 39.6028 -118.5639 357° North 391 450 43,000  Level Oakland Center
06:51PM 39.7058 -118.5706 357° North 390 449 43,000  Level Oakland Center
06:52PM 39.8100 -118.5792 356° North 388 447 43,000  Level Oakland Center
06:53PM 39.9306 -118.5886 357° North 388 447 43,000  Level Oakland Center
06:54PM 40.0258 -118.5964 356° North 387 445 43,000  Level Oakland Center
06:55PM 40.1503 -118.6056 357° North 378 435 43,000  Level Oakland Center
06:56PM 40.2542 -118.6131 357° North 376 433 43,000  Level Oakland Center
06:57PM 40.3586 -118.6231 356° North 376 433 43,000  Level Oakland Center
06:58PM 40.4644 -118.6308 357° North 377 434 43,000  Level Oakland Center
06:59PM 40.5706 -118.6383 357° North 378 435 43,000  Level Oakland Center
07:00PM 40.6586 -118.6444 357° North 386 444 43,000  Level Salt Lake Center
07:01PM 40.7803 -118.6547 356° North 389 448 43,000  Level Salt Lake Center
07:02PM 40.8844 -118.6642 356° North 390 449 43,000  Level Salt Lake Center
07:03PM 41.0083 -118.6719 357° North 392 451 43,000  Level Salt Lake Center
07:04PM 41.1133 -118.6806 356° North 393 452 43,000  Level Salt Lake Center
07:05PM 41.2175 -118.6900 356° North 393 452 43,000  Level Salt Lake Center
07:06PM 41.3433 -118.6989 357° North 397 457 43,000  Level Salt Lake Center
07:07PM 41.4506 -118.7078 356° North 400 460 43,000  Level Salt Lake Center
07:08PM 41.5594 -118.7150 357° North 402 463 43,000  Level Salt Lake Center
07:09PM 41.6861 -118.7247 357° North 403 464 43,000  Level Salt Lake Center
07:10PM 41.7936 -118.7353 356° North 404 465 43,000  Level Salt Lake Center
07:11PM 41.9006 -118.7428 357° North 404 465 43,000  Level Salt Lake Center
07:12PM 42.0267 -118.7528 357° North 403 464 43,000  Level Salt Lake Center
07:13PM 42.1347 -118.7614 357° North 404 465 43,000  Level Salt Lake Center
07:14PM 42.2442 -118.7717 356° North 407 468 43,000  Level Salt Lake Center
07:16PM 42.3711 -118.7806 357° North 409 471 43,000  Level Salt Lake Center
07:17PM 42.4725 -118.7894 356° North 408 470 43,000  Level Salt Lake Center
07:18PM 42.5858 -118.7981 357° North 408 470 43,000  Level Salt Lake Center
07:19PM 42.7217 -118.8094 356° North 408 470 43,000  Level Salt Lake Center
07:20PM 42.8350 -118.8189 357° North 408 470 43,000  Level Salt Lake Center
07:21PM 42.9486 -118.8289 356° North 408 470 43,000  Level Salt Lake Center
07:22PM 43.0614 -118.8364 357° North 408 470 43,000  Level Salt Lake Center
07:23PM 43.1739 -118.8472 356° North 408 470 43,000  Level Salt Lake Center
07:24PM 43.2869 -118.8564 357° North 408 470 43,000  Level Salt Lake Center
07:25PM 43.3992 -118.8672 356° North 408 470 43,000  Level Salt Lake Center
07:26PM 43.5117 -118.8747 357° North 408 470 43,000  Level Salt Lake Center
07:27PM 43.6242 -118.8853 356° North 407 468 43,000  Level Salt Lake Center
07:27PM 43.6989 -118.8928 356° North 406 467 43,000  Level Seattle Center
07:28PM 43.8117 -118.9042 356° North 406 467 43,000  Level Seattle Center
07:29PM 43.9450 -118.9142 357° North 404 465 43,000  Level Seattle Center
07:30PM 44.0564 -118.9233 357° North 402 463 43,000 -60 Level Seattle Center
07:31PM 44.1592 -118.9322 356° North 402 463 42,900 -900 Descending Seattle Center
07:32PM 44.2736 -118.9414 357° North 410 472 41,200 -1,680 Descending Seattle Center
07:33PM 44.3881 -118.9519 356° North 412 474 39,600 -1,620 Descending Seattle Center
07:34PM 44.5031 -118.9619 356° North 412 474 38,000 -1,740 Descending Seattle Center
07:35PM 44.6189 -118.9725 356° North 415 478 36,100 -2,040 Descending Seattle Center
07:36PM 44.7358 -118.9839 356° North 424 488 34,000 -2,040 Descending Seattle Center
07:38PM 44.8544 -118.9953 356° North 424 488 32,000 -2,460 Descending Seattle Center
07:39PM 45.0025 -119.0086 356° North 441 507 29,100 -2,640 Descending Seattle Center
07:40PM 45.1225 -119.0203 356° North 441 507 26,700 -2,340 Descending Seattle Center
07:41PM 45.2375 -119.0311 356° North 424 488 24,400 -1,980 Descending Seattle Center
07:42PM 45.3444 -119.0408 356° North 397 457 22,700 -1,740 Descending Seattle Center
07:43PM 45.4408 -119.0492 357° North 363 418 21,000 -1,740 Descending Seattle Center
07:44PM 45.5267 -119.0578 356° North 333 383 19,300 -1,920 Descending Seattle Center
07:45PM 45.6169 -119.0639 357° North 302 348 17,100 -1,980 Descending Seattle Center
07:46PM 45.6972 -119.0725 356° North 294 338 15,400 -1,740 Descending Seattle Center
07:47PM 45.7758 -119.0783 357° North 285 328 13,600 -1,740 Descending Seattle Center
07:48PM 45.8511 -119.0997 349° North 281 323 11,900 -1,740 Descending Seattle Center
07:49PM 45.9208 -119.1386 339° North 273 314 10,200 -1,920 Descending Seattle Center
07:50PM 45.9897 -119.1731 341° North 262 302 8,100 -2,220 Descending Seattle Center
07:51PM 46.0600 -119.1756 359° North 262 302 5,800 -2,040 Descending Seattle Center
07:52PM 46.1322 -119.1539 12° North 266 306 4,100 -1,800 Descending Seattle Center
07:53PM 46.2042 -119.1297 13° North 245 282 2,200 -1,440 Descending Seattle Center
07:54PM 46.2581 -119.0969 23° Northeast 219 252 1,300 -660 Descending Seattle Center
07:55PM 46.2856 -119.0811 22° Northeast 143 165 900 -480 Descending Seattle Center
07:56PM 46.2731 -119.1103 238° Southwest 94 108 400 -300 Descending Seattle Center
07:57PM 46.2656 -119.1200 222° Southwest 37 43 400  Level Seattle Center